UPS6988 KMIA-MNMG
Flight info
| Callsign | UPS6988 |
|---|---|
| Flight time | 2h 8m |
| Altitude | 33000 |
| Route | MAYNR3 FUNDI UM335 ALVEK UM328 RAKEL RAKEL1A |
| Aircraft | MD11/H-SDE1E2E3FGHIJ2J3J4J5M1RWXY/LB1D1 |
Departure
| Time | 2026-05-03 20:34 |
|---|---|
| Airport | Miami International Airport (KMIA) |
Arrival
| Time | 2026-05-03 22:42 |
|---|---|
| Airport | Augusto C. Sandino (Managua) International Airport (MNMG) |
| Time | Latitude | Longitude | Altitude | Speed | Heading |
|---|---|---|---|---|---|
| 2026-05-03 20:15 | 25.79091 | -80.29118 | 22 ft | 0 kts | 209° |
| 2026-05-03 20:18 | 25.79093 | -80.29117 | 22 ft | 2 kts | 209° |
| 2026-05-03 20:18 | 25.79116 | -80.29103 | 22 ft | 4 kts | 209° |
| 2026-05-03 20:19 | 25.79139 | -80.29089 | 23 ft | 3 kts | 208° |
| 2026-05-03 20:19 | 25.79155 | -80.29079 | 26 ft | 4 kts | 193° |
| 2026-05-03 20:19 | 25.79174 | -80.29077 | 25 ft | 4 kts | 146° |
| 2026-05-03 20:19 | 25.79190 | -80.29096 | 24 ft | 4 kts | 118° |
| 2026-05-03 20:20 | 25.79197 | -80.29110 | 23 ft | 1 kts | 120° |
| 2026-05-03 20:26 | 25.79197 | -80.29109 | 22 ft | 0 kts | 120° |
| 2026-05-03 20:26 | 25.79188 | -80.29093 | 22 ft | 7 kts | 120° |
| 2026-05-03 20:27 | 25.79148 | -80.29016 | 26 ft | 16 kts | 120° |
| 2026-05-03 20:27 | 25.79079 | -80.28899 | 24 ft | 17 kts | 143° |
| 2026-05-03 20:27 | 25.79017 | -80.28879 | 26 ft | 5 kts | 175° |
| 2026-05-03 20:27 | 25.78986 | -80.28876 | 24 ft | 4 kts | 179° |
| 2026-05-03 20:28 | 25.78946 | -80.28900 | 22 ft | 9 kts | 219° |
| 2026-05-03 20:28 | 25.78927 | -80.28953 | 26 ft | 9 kts | 253° |
| 2026-05-03 20:28 | 25.78904 | -80.29053 | 25 ft | 16 kts | 265° |
| 2026-05-03 20:28 | 25.78900 | -80.29195 | 26 ft | 20 kts | 268° |
| 2026-05-03 20:29 | 25.78892 | -80.29357 | 24 ft | 22 kts | 266° |
| 2026-05-03 20:29 | 25.78885 | -80.29538 | 26 ft | 24 kts | 266° |
| 2026-05-03 20:29 | 25.78876 | -80.29736 | 22 ft | 27 kts | 267° |
| 2026-05-03 20:29 | 25.78869 | -80.29944 | 26 ft | 27 kts | 268° |
| 2026-05-03 20:30 | 25.78859 | -80.30153 | 26 ft | 26 kts | 267° |
| 2026-05-03 20:30 | 25.78850 | -80.30352 | 22 ft | 26 kts | 267° |
| 2026-05-03 20:30 | 25.78843 | -80.30549 | 22 ft | 25 kts | 268° |
| 2026-05-03 20:30 | 25.78838 | -80.30742 | 25 ft | 25 kts | 269° |
| 2026-05-03 20:31 | 25.78840 | -80.30933 | 26 ft | 24 kts | 272° |
| 2026-05-03 20:31 | 25.78829 | -80.31106 | 24 ft | 21 kts | 260° |
| 2026-05-03 20:31 | 25.78815 | -80.31257 | 24 ft | 18 kts | 267° |
| 2026-05-03 20:31 | 25.78797 | -80.31377 | 27 ft | 9 kts | 237° |
| 2026-05-03 20:32 | 25.78774 | -80.31392 | 25 ft | 3 kts | 204° |
| 2026-05-03 20:32 | 25.78748 | -80.31397 | 25 ft | 5 kts | 185° |
| 2026-05-03 20:32 | 25.78721 | -80.31399 | 25 ft | 2 kts | 178° |
| 2026-05-03 20:32 | 25.78708 | -80.31398 | 23 ft | 2 kts | 177° |
| 2026-05-03 20:33 | 25.78700 | -80.31397 | 24 ft | 1 kts | 177° |
| 2026-05-03 20:33 | 25.78691 | -80.31397 | 24 ft | 3 kts | 177° |
| 2026-05-03 20:33 | 25.78647 | -80.31389 | 25 ft | 7 kts | 157° |
| 2026-05-03 20:33 | 25.78622 | -80.31342 | 26 ft | 10 kts | 103° |
| 2026-05-03 20:34 | 25.78626 | -80.31091 | 24 ft | 74 kts | 86° |
| 2026-05-03 20:34 | 25.78664 | -80.30195 | 23 ft | 155 kts | 87° |
| 2026-05-03 20:34 | 25.78721 | -80.28804 | 241 ft | 197 kts | 88° |
| 2026-05-03 20:34 | 25.78734 | -80.27277 | 1202 ft | 189 kts | 88° |
| 2026-05-03 20:35 | 25.78783 | -80.25909 | 2586 ft | 167 kts | 86° |
| 2026-05-03 20:35 | 25.78875 | -80.24572 | 3230 ft | 191 kts | 84° |
| 2026-05-03 20:35 | 25.79031 | -80.23013 | 3719 ft | 208 kts | 85° |
| 2026-05-03 20:35 | 25.79104 | -80.21432 | 4571 ft | 202 kts | 90° |
| 2026-05-03 20:36 | 25.79034 | -80.19871 | 5279 ft | 209 kts | 104° |
| 2026-05-03 20:36 | 25.78382 | -80.18384 | 5262 ft | 214 kts | 138° |
| 2026-05-03 20:36 | 25.77134 | -80.17510 | 4954 ft | 229 kts | 167° |
| 2026-05-03 20:36 | 25.75610 | -80.17288 | 5760 ft | 199 kts | 175° |
| 2026-05-03 20:37 | 25.74322 | -80.16918 | 6650 ft | 199 kts | 176° |
| 2026-05-03 20:37 | 25.72879 | -80.16877 | 6899 ft | 211 kts | 193° |
| 2026-05-03 20:37 | 25.71395 | -80.17299 | 7021 ft | 228 kts | 206° |
| 2026-05-03 20:37 | 25.70019 | -80.18175 | 7360 ft | 229 kts | 222° |
| 2026-05-03 20:38 | 25.69277 | -80.19000 | 7607 ft | 226 kts | 233° |
| 2026-05-03 20:38 | 25.68105 | -80.20276 | 7332 ft | 239 kts | 212° |
| 2026-05-03 20:38 | 25.66501 | -80.20740 | 7092 ft | 256 kts | 184° |
| 2026-05-03 20:38 | 25.64629 | -80.20642 | 7002 ft | 281 kts | 180° |
| 2026-05-03 20:39 | 25.62676 | -80.20564 | 6967 ft | 276 kts | 188° |
| 2026-05-03 20:39 | 25.60829 | -80.21064 | 7000 ft | 273 kts | 204° |
| 2026-05-03 20:39 | 25.59082 | -80.21905 | 7163 ft | 274 kts | 208° |
| 2026-05-03 20:39 | 25.57388 | -80.22850 | 7995 ft | 274 kts | 210° |
| 2026-05-03 20:40 | 25.55697 | -80.23842 | 8748 ft | 276 kts | 211° |
| 2026-05-03 20:40 | 25.54002 | -80.24866 | 9513 ft | 279 kts | 212° |
| 2026-05-03 20:40 | 25.52291 | -80.25921 | 10192 ft | 287 kts | 212° |
| 2026-05-03 20:40 | 25.50465 | -80.27066 | 10312 ft | 313 kts | 212° |
| 2026-05-03 20:41 | 25.48503 | -80.28306 | 10431 ft | 337 kts | 212° |
| 2026-05-03 20:41 | 25.46443 | -80.29612 | 10834 ft | 350 kts | 212° |
| 2026-05-03 20:41 | 25.44370 | -80.30925 | 11528 ft | 353 kts | 212° |
| 2026-05-03 20:41 | 25.42335 | -80.32216 | 12232 ft | 357 kts | 212° |
| 2026-05-03 20:42 | 25.40167 | -80.33593 | 12960 ft | 360 kts | 212° |
| 2026-05-03 20:42 | 25.37982 | -80.34983 | 13664 ft | 364 kts | 212° |
| 2026-05-03 20:42 | 25.35772 | -80.36389 | 14308 ft | 368 kts | 212° |
| 2026-05-03 20:42 | 25.33540 | -80.37810 | 14782 ft | 376 kts | 212° |
| 2026-05-03 20:43 | 25.31264 | -80.39258 | 15135 ft | 374 kts | 212° |
| 2026-05-03 20:43 | 25.29005 | -80.40694 | 15494 ft | 374 kts | 212° |
| 2026-05-03 20:43 | 25.26744 | -80.42131 | 15835 ft | 376 kts | 212° |
| 2026-05-03 20:43 | 25.24429 | -80.43511 | 15963 ft | 380 kts | 207° |
| 2026-05-03 20:44 | 25.21957 | -80.44567 | 15994 ft | 382 kts | 201° |
| 2026-05-03 20:44 | 25.19426 | -80.45436 | 16130 ft | 382 kts | 199° |
| 2026-05-03 20:44 | 25.16865 | -80.46251 | 16314 ft | 384 kts | 199° |
| 2026-05-03 20:44 | 25.14296 | -80.47070 | 16350 ft | 381 kts | 200° |
| 2026-05-03 20:45 | 25.11733 | -80.47907 | 16498 ft | 385 kts | 200° |
| 2026-05-03 20:45 | 25.09242 | -80.48717 | 16628 ft | 358 kts | 200° |
| 2026-05-03 20:45 | 25.06901 | -80.49480 | 16155 ft | 359 kts | 200° |
| 2026-05-03 20:45 | 25.04433 | -80.50297 | 16026 ft | 381 kts | 200° |
| 2026-05-03 20:46 | 25.01878 | -80.51142 | 15997 ft | 383 kts | 200° |
| 2026-05-03 20:46 | 24.99325 | -80.51983 | 16005 ft | 383 kts | 200° |
| 2026-05-03 20:46 | 24.96817 | -80.52806 | 16972 ft | 363 kts | 200° |
| 2026-05-03 20:46 | 24.94517 | -80.53551 | 18792 ft | 327 kts | 200° |
| 2026-05-03 20:47 | 24.92299 | -80.54275 | 19261 ft | 340 kts | 201° |
| 2026-05-03 20:47 | 24.89974 | -80.55052 | 19390 ft | 357 kts | 201° |
| 2026-05-03 20:47 | 24.87546 | -80.55888 | 19513 ft | 372 kts | 202° |
| 2026-05-03 20:47 | 24.85094 | -80.56953 | 19636 ft | 385 kts | 209° |
| 2026-05-03 20:48 | 24.82771 | -80.58403 | 19820 ft | 393 kts | 218° |
| 2026-05-03 20:48 | 24.80647 | -80.60308 | 20300 ft | 393 kts | 226° |
| 2026-05-03 20:48 | 24.78849 | -80.62568 | 20815 ft | 393 kts | 235° |
| 2026-05-03 20:48 | 24.77311 | -80.65063 | 21322 ft | 395 kts | 239° |
| 2026-05-03 20:49 | 24.75869 | -80.67652 | 21843 ft | 397 kts | 240° |
| 2026-05-03 20:49 | 24.74441 | -80.70270 | 22363 ft | 400 kts | 240° |
| 2026-05-03 20:49 | 24.72995 | -80.72894 | 22874 ft | 402 kts | 240° |
| 2026-05-03 20:49 | 24.71523 | -80.75528 | 23392 ft | 405 kts | 239° |
| 2026-05-03 20:50 | 24.70028 | -80.78169 | 23835 ft | 407 kts | 239° |
| 2026-05-03 20:50 | 24.68518 | -80.80813 | 24262 ft | 409 kts | 239° |
| 2026-05-03 20:50 | 24.66996 | -80.83467 | 24699 ft | 411 kts | 239° |
| 2026-05-03 20:50 | 24.65485 | -80.86095 | 25109 ft | 413 kts | 239° |
| 2026-05-03 20:51 | 24.63945 | -80.88764 | 25537 ft | 414 kts | 239° |
| 2026-05-03 20:51 | 24.62323 | -80.91399 | 25942 ft | 417 kts | 236° |
| 2026-05-03 20:51 | 24.60479 | -80.93875 | 26365 ft | 421 kts | 230° |
| 2026-05-03 20:51 | 24.58345 | -80.96097 | 26745 ft | 426 kts | 223° |
| 2026-05-03 20:52 | 24.55919 | -80.98003 | 27138 ft | 432 kts | 216° |
| 2026-05-03 20:52 | 24.53241 | -80.99551 | 27514 ft | 438 kts | 208° |
| 2026-05-03 20:52 | 24.50344 | -81.00713 | 27879 ft | 446 kts | 201° |
| 2026-05-03 20:52 | 24.47283 | -81.01454 | 28230 ft | 454 kts | 194° |
| 2026-05-03 20:53 | 24.44107 | -81.01760 | 28565 ft | 462 kts | 188° |
| 2026-05-03 20:53 | 24.40909 | -81.01785 | 28899 ft | 467 kts | 185° |
| 2026-05-03 20:53 | 24.37643 | -81.01699 | 29251 ft | 470 kts | 185° |
| 2026-05-03 20:53 | 24.34361 | -81.01594 | 29568 ft | 473 kts | 185° |
| 2026-05-03 20:54 | 24.31069 | -81.01505 | 29951 ft | 474 kts | 185° |
| 2026-05-03 20:54 | 24.24479 | -81.01391 | 30816 ft | 471 kts | 186° |
| 2026-05-03 20:54 | 24.21206 | -81.01356 | 31239 ft | 469 kts | 186° |
| 2026-05-03 20:55 | 24.17944 | -81.01328 | 31653 ft | 468 kts | 186° |
| 2026-05-03 20:55 | 24.14691 | -81.01303 | 32009 ft | 468 kts | 186° |
| 2026-05-03 20:55 | 24.11441 | -81.01278 | 32371 ft | 466 kts | 186° |
| 2026-05-03 20:55 | 24.08201 | -81.01251 | 32741 ft | 464 kts | 186° |
| 2026-05-03 20:56 | 24.04959 | -81.01226 | 32924 ft | 466 kts | 186° |
| 2026-05-03 20:56 | 24.01713 | -81.01200 | 32966 ft | 467 kts | 185° |
| 2026-05-03 20:56 | 23.96293 | -81.01057 | 32975 ft | 470 kts | 184° |
| 2026-05-03 20:57 | 23.88679 | -81.00727 | 32979 ft | 471 kts | 183° |
| 2026-05-03 20:57 | 23.82104 | -81.00433 | 32981 ft | 472 kts | 182° |
| 2026-05-03 20:58 | 23.76631 | -81.00197 | 32982 ft | 473 kts | 182° |
| 2026-05-03 20:58 | 23.68962 | -80.99872 | 32980 ft | 474 kts | 182° |
| 2026-05-03 20:59 | 23.63434 | -80.99639 | 32976 ft | 475 kts | 182° |
| 2026-05-03 20:59 | 23.56820 | -80.99360 | 32979 ft | 475 kts | 182° |
| 2026-05-03 21:00 | 23.51314 | -80.99128 | 32978 ft | 476 kts | 182° |
| 2026-05-03 21:00 | 23.43615 | -80.98804 | 32982 ft | 476 kts | 182° |
| 2026-05-03 21:01 | 23.36979 | -80.98525 | 32988 ft | 477 kts | 182° |
| 2026-05-03 21:01 | 23.30348 | -80.98247 | 32980 ft | 477 kts | 182° |
| 2026-05-03 21:02 | 23.23707 | -80.97968 | 32979 ft | 477 kts | 182° |
| 2026-05-03 21:02 | 23.17066 | -80.97688 | 32982 ft | 477 kts | 182° |
| 2026-05-03 21:03 | 23.10472 | -80.97410 | 32982 ft | 477 kts | 182° |
| 2026-05-03 21:03 | 23.03824 | -80.97125 | 32983 ft | 478 kts | 182° |
| 2026-05-03 21:04 | 22.97194 | -80.97315 | 32975 ft | 471 kts | 193° |
| 2026-05-03 21:04 | 22.91003 | -80.99211 | 32978 ft | 462 kts | 206° |
| 2026-05-03 21:05 | 22.85115 | -81.01967 | 32975 ft | 461 kts | 208° |
| 2026-05-03 21:05 | 22.79228 | -81.04743 | 32972 ft | 461 kts | 207° |
| 2026-05-03 21:06 | 22.73299 | -81.07434 | 32973 ft | 462 kts | 206° |
| 2026-05-03 21:06 | 22.67359 | -81.10083 | 33006 ft | 462 kts | 207° |
| 2026-05-03 21:07 | 22.61415 | -81.12727 | 33001 ft | 462 kts | 207° |
| 2026-05-03 21:07 | 22.55468 | -81.15371 | 32994 ft | 462 kts | 207° |
| 2026-05-03 21:08 | 22.49520 | -81.18010 | 33002 ft | 462 kts | 206° |
| 2026-05-03 21:08 | 22.43511 | -81.20497 | 33000 ft | 463 kts | 205° |
| 2026-05-03 21:09 | 22.37466 | -81.22897 | 32995 ft | 463 kts | 205° |
| 2026-05-03 21:09 | 22.31463 | -81.25281 | 32996 ft | 462 kts | 205° |
| 2026-05-03 21:10 | 22.25430 | -81.27687 | 32996 ft | 462 kts | 205° |
| 2026-05-03 21:10 | 22.19394 | -81.30096 | 32999 ft | 463 kts | 205° |
| 2026-05-03 21:11 | 22.13350 | -81.32506 | 33000 ft | 463 kts | 205° |
| 2026-05-03 21:11 | 22.07295 | -81.34918 | 33000 ft | 464 kts | 205° |
| 2026-05-03 21:12 | 22.01243 | -81.37327 | 33003 ft | 464 kts | 205° |
| 2026-05-03 21:12 | 21.95225 | -81.39719 | 32997 ft | 464 kts | 205° |
| 2026-05-03 21:13 | 21.89120 | -81.42144 | 32997 ft | 465 kts | 205° |
| 2026-05-03 21:13 | 21.83074 | -81.44544 | 32998 ft | 466 kts | 205° |
| 2026-05-03 21:14 | 21.76989 | -81.46957 | 32998 ft | 466 kts | 205° |
| 2026-05-03 21:14 | 21.70893 | -81.49371 | 32997 ft | 467 kts | 205° |
| 2026-05-03 21:15 | 21.64781 | -81.51784 | 32998 ft | 468 kts | 205° |
| 2026-05-03 21:15 | 21.58667 | -81.54201 | 32996 ft | 468 kts | 205° |
| 2026-05-03 21:16 | 21.52852 | -81.57155 | 32995 ft | 463 kts | 213° |
| 2026-05-03 21:16 | 21.47240 | -81.60561 | 32994 ft | 463 kts | 214° |
| 2026-05-03 21:17 | 21.42584 | -81.63412 | 32992 ft | 464 kts | 213° |
| 2026-05-03 21:17 | 21.35991 | -81.67378 | 32991 ft | 465 kts | 213° |
| 2026-05-03 21:18 | 21.30327 | -81.70755 | 32996 ft | 466 kts | 213° |
| 2026-05-03 21:18 | 21.24657 | -81.74128 | 32994 ft | 466 kts | 213° |
| 2026-05-03 21:19 | 21.18974 | -81.77507 | 32994 ft | 467 kts | 213° |
| 2026-05-03 21:19 | 21.13332 | -81.80860 | 32992 ft | 467 kts | 213° |
| 2026-05-03 21:20 | 21.07643 | -81.84237 | 32995 ft | 467 kts | 213° |
| 2026-05-03 21:20 | 21.01956 | -81.87611 | 32993 ft | 467 kts | 213° |
| 2026-05-03 21:21 | 20.96258 | -81.90988 | 32994 ft | 468 kts | 213° |
| 2026-05-03 21:21 | 20.90550 | -81.94369 | 32996 ft | 468 kts | 213° |
| 2026-05-03 21:22 | 20.84844 | -81.97745 | 32990 ft | 469 kts | 212° |
| 2026-05-03 21:22 | 20.79127 | -82.01115 | 32992 ft | 469 kts | 212° |
| 2026-05-03 21:23 | 20.73446 | -82.04464 | 32985 ft | 469 kts | 212° |
| 2026-05-03 21:23 | 20.67730 | -82.07836 | 32998 ft | 469 kts | 212° |
| 2026-05-03 21:24 | 20.62003 | -82.11213 | 32983 ft | 470 kts | 212° |
| 2026-05-03 21:24 | 20.56280 | -82.14585 | 32994 ft | 470 kts | 212° |
| 2026-05-03 21:25 | 20.50547 | -82.17959 | 32993 ft | 471 kts | 212° |
| 2026-05-03 21:25 | 20.44810 | -82.21333 | 32990 ft | 471 kts | 212° |
| 2026-05-03 21:26 | 20.39064 | -82.24708 | 32988 ft | 471 kts | 212° |
| 2026-05-03 21:26 | 20.33305 | -82.28089 | 32992 ft | 471 kts | 212° |
| 2026-05-03 21:27 | 20.27577 | -82.31395 | 32988 ft | 473 kts | 211° |
| 2026-05-03 21:27 | 20.21647 | -82.34466 | 32983 ft | 474 kts | 209° |
| 2026-05-03 21:28 | 20.15667 | -82.37458 | 32988 ft | 475 kts | 209° |
| 2026-05-03 21:28 | 20.09687 | -82.40463 | 32989 ft | 475 kts | 209° |
| 2026-05-03 21:29 | 20.03710 | -82.43482 | 32983 ft | 475 kts | 209° |
| 2026-05-03 21:29 | 19.97774 | -82.46483 | 32979 ft | 475 kts | 209° |
| 2026-05-03 21:30 | 19.91794 | -82.49503 | 32985 ft | 476 kts | 209° |
| 2026-05-03 21:30 | 19.85807 | -82.52524 | 32982 ft | 476 kts | 209° |
| 2026-05-03 21:31 | 19.79815 | -82.55545 | 32986 ft | 477 kts | 209° |
| 2026-05-03 21:31 | 19.73815 | -82.58567 | 32978 ft | 477 kts | 209° |
| 2026-05-03 21:32 | 19.67803 | -82.61593 | 32980 ft | 477 kts | 209° |
| 2026-05-03 21:32 | 19.61841 | -82.64591 | 32978 ft | 478 kts | 208° |
| 2026-05-03 21:33 | 19.55828 | -82.67612 | 32979 ft | 478 kts | 208° |
| 2026-05-03 21:33 | 19.49808 | -82.70630 | 32978 ft | 478 kts | 208° |
| 2026-05-03 21:34 | 19.43791 | -82.73642 | 32974 ft | 478 kts | 208° |
| 2026-05-03 21:34 | 19.37764 | -82.76660 | 32976 ft | 478 kts | 208° |
| 2026-05-03 21:35 | 19.31745 | -82.79674 | 32975 ft | 479 kts | 208° |
| 2026-05-03 21:35 | 19.25722 | -82.82688 | 32974 ft | 479 kts | 208° |
| 2026-05-03 21:36 | 19.19731 | -82.85683 | 32970 ft | 479 kts | 208° |
| 2026-05-03 21:36 | 19.13693 | -82.88700 | 32975 ft | 479 kts | 208° |
| 2026-05-03 21:37 | 19.07667 | -82.91707 | 32973 ft | 479 kts | 208° |
| 2026-05-03 21:37 | 19.01625 | -82.94721 | 32970 ft | 479 kts | 208° |
| 2026-05-03 21:38 | 18.95596 | -82.97725 | 32969 ft | 479 kts | 208° |
| 2026-05-03 21:38 | 18.89597 | -83.00712 | 32969 ft | 479 kts | 208° |
| 2026-05-03 21:39 | 18.83557 | -83.03717 | 32966 ft | 480 kts | 208° |
| 2026-05-03 21:39 | 18.77511 | -83.06722 | 32964 ft | 480 kts | 208° |
| 2026-05-03 21:40 | 18.71466 | -83.09718 | 32966 ft | 480 kts | 208° |
| 2026-05-03 21:40 | 18.65424 | -83.12713 | 32967 ft | 480 kts | 208° |
| 2026-05-03 21:41 | 18.59372 | -83.15713 | 32969 ft | 480 kts | 208° |
| 2026-05-03 21:41 | 18.53367 | -83.18689 | 32963 ft | 480 kts | 208° |
| 2026-05-03 21:42 | 18.47312 | -83.21688 | 32964 ft | 481 kts | 208° |
| 2026-05-03 21:42 | 18.41257 | -83.24684 | 32966 ft | 481 kts | 208° |
| 2026-05-03 21:43 | 18.35192 | -83.27682 | 32962 ft | 481 kts | 208° |
| 2026-05-03 21:43 | 18.29122 | -83.30681 | 32959 ft | 481 kts | 208° |
| 2026-05-03 21:44 | 18.23095 | -83.33656 | 32959 ft | 481 kts | 208° |
| 2026-05-03 21:44 | 18.17022 | -83.36651 | 32960 ft | 482 kts | 208° |
| 2026-05-03 21:45 | 18.10951 | -83.39643 | 32958 ft | 482 kts | 208° |
| 2026-05-03 21:45 | 18.05892 | -83.42134 | 32958 ft | 482 kts | 208° |
| 2026-05-03 21:46 | 17.98817 | -83.45612 | 32960 ft | 483 kts | 208° |
| 2026-05-03 21:46 | 17.93719 | -83.48114 | 32961 ft | 483 kts | 207° |
| 2026-05-03 21:47 | 17.87627 | -83.51105 | 32957 ft | 483 kts | 207° |
| 2026-05-03 21:47 | 17.81559 | -83.54084 | 32957 ft | 483 kts | 207° |
| 2026-05-03 21:48 | 17.75473 | -83.57070 | 32955 ft | 483 kts | 207° |
| 2026-05-03 21:48 | 17.69387 | -83.60054 | 32954 ft | 482 kts | 207° |
| 2026-05-03 21:49 | 17.63303 | -83.63034 | 32950 ft | 482 kts | 207° |
| 2026-05-03 21:49 | 17.57217 | -83.66014 | 32950 ft | 482 kts | 207° |
| 2026-05-03 21:50 | 17.51176 | -83.68969 | 32955 ft | 482 kts | 207° |
| 2026-05-03 21:50 | 17.45091 | -83.71943 | 32954 ft | 482 kts | 207° |
| 2026-05-03 21:51 | 17.39012 | -83.74913 | 32952 ft | 482 kts | 207° |
| 2026-05-03 21:51 | 17.32928 | -83.77882 | 32950 ft | 482 kts | 207° |
| 2026-05-03 21:52 | 17.26842 | -83.80850 | 32949 ft | 482 kts | 207° |
| 2026-05-03 21:52 | 17.20756 | -83.83810 | 32947 ft | 482 kts | 207° |
| 2026-05-03 21:53 | 17.14695 | -83.86758 | 32948 ft | 482 kts | 207° |
| 2026-05-03 21:53 | 17.08610 | -83.89718 | 32949 ft | 482 kts | 207° |
| 2026-05-03 21:54 | 17.02529 | -83.92675 | 32945 ft | 482 kts | 207° |
| 2026-05-03 21:54 | 16.96480 | -83.95615 | 32946 ft | 481 kts | 207° |
| 2026-05-03 21:55 | 16.90416 | -83.98557 | 32946 ft | 481 kts | 207° |
| 2026-05-03 21:55 | 16.84341 | -84.01475 | 32945 ft | 480 kts | 206° |
| 2026-05-03 21:56 | 16.78273 | -84.04381 | 32945 ft | 480 kts | 206° |
| 2026-05-03 21:56 | 16.72199 | -84.07290 | 32942 ft | 480 kts | 206° |
| 2026-05-03 21:57 | 16.66141 | -84.10190 | 32938 ft | 480 kts | 206° |
| 2026-05-03 21:57 | 16.60068 | -84.13096 | 32936 ft | 480 kts | 206° |
| 2026-05-03 21:58 | 16.54007 | -84.15994 | 32936 ft | 479 kts | 206° |
| 2026-05-03 21:58 | 16.47966 | -84.18880 | 32935 ft | 479 kts | 206° |
| 2026-05-03 21:59 | 16.41902 | -84.21775 | 32936 ft | 479 kts | 206° |
| 2026-05-03 21:59 | 16.35842 | -84.24663 | 32932 ft | 479 kts | 206° |
| 2026-05-03 22:00 | 16.29778 | -84.27552 | 32926 ft | 478 kts | 206° |
| 2026-05-03 22:00 | 16.23732 | -84.30433 | 32930 ft | 478 kts | 206° |
| 2026-05-03 22:01 | 16.17683 | -84.33313 | 32932 ft | 478 kts | 206° |
| 2026-05-03 22:01 | 16.11633 | -84.36192 | 32928 ft | 478 kts | 206° |
| 2026-05-03 22:02 | 16.05585 | -84.39068 | 32926 ft | 478 kts | 206° |
| 2026-05-03 22:02 | 15.99576 | -84.41922 | 32927 ft | 477 kts | 206° |
| 2026-05-03 22:03 | 15.93532 | -84.44790 | 32925 ft | 477 kts | 206° |
| 2026-05-03 22:03 | 15.87473 | -84.47663 | 32928 ft | 478 kts | 206° |
| 2026-05-03 22:04 | 15.81424 | -84.50532 | 32925 ft | 478 kts | 206° |
| 2026-05-03 22:04 | 15.75405 | -84.53385 | 32922 ft | 478 kts | 206° |
| 2026-05-03 22:05 | 15.69355 | -84.56250 | 32926 ft | 478 kts | 206° |
| 2026-05-03 22:05 | 15.63297 | -84.59118 | 32923 ft | 478 kts | 206° |
| 2026-05-03 22:06 | 15.57233 | -84.61985 | 32917 ft | 479 kts | 206° |
| 2026-05-03 22:06 | 15.51167 | -84.64853 | 32919 ft | 479 kts | 206° |
| 2026-05-03 22:07 | 15.45130 | -84.67703 | 32920 ft | 480 kts | 206° |
| 2026-05-03 22:07 | 15.39014 | -84.70591 | 32921 ft | 480 kts | 206° |
| 2026-05-03 22:08 | 15.32967 | -84.73446 | 32919 ft | 481 kts | 206° |
| 2026-05-03 22:08 | 15.26882 | -84.76318 | 32914 ft | 481 kts | 206° |
| 2026-05-03 22:09 | 15.20783 | -84.79193 | 32911 ft | 481 kts | 206° |
| 2026-05-03 22:10 | 15.11625 | -84.83508 | 32910 ft | 482 kts | 206° |
| 2026-05-03 22:10 | 15.05525 | -84.86380 | 32908 ft | 482 kts | 206° |
| 2026-05-03 22:11 | 14.99456 | -84.89236 | 32908 ft | 482 kts | 206° |
| 2026-05-03 22:11 | 14.93346 | -84.92108 | 32904 ft | 482 kts | 206° |
| 2026-05-03 22:12 | 14.87241 | -84.94977 | 32903 ft | 482 kts | 206° |
| 2026-05-03 22:12 | 14.81129 | -84.97847 | 32905 ft | 482 kts | 206° |
| 2026-05-03 22:13 | 14.75015 | -85.00716 | 32908 ft | 482 kts | 206° |
| 2026-05-03 22:13 | 14.68906 | -85.03576 | 32910 ft | 482 kts | 205° |
| 2026-05-03 22:14 | 14.62796 | -85.06437 | 32908 ft | 482 kts | 205° |
| 2026-05-03 22:14 | 14.56732 | -85.09277 | 32911 ft | 481 kts | 205° |
| 2026-05-03 22:15 | 14.50628 | -85.12135 | 32909 ft | 481 kts | 205° |
| 2026-05-03 22:15 | 14.44530 | -85.14988 | 32910 ft | 481 kts | 205° |
| 2026-05-03 22:16 | 14.38439 | -85.17836 | 32912 ft | 480 kts | 205° |
| 2026-05-03 22:16 | 14.32351 | -85.20681 | 32913 ft | 480 kts | 205° |
| 2026-05-03 22:17 | 14.26267 | -85.23523 | 32913 ft | 479 kts | 205° |
| 2026-05-03 22:17 | 14.20195 | -85.26357 | 32911 ft | 478 kts | 205° |
| 2026-05-03 22:18 | 14.14169 | -85.29168 | 32914 ft | 478 kts | 205° |
| 2026-05-03 22:18 | 14.08111 | -85.31992 | 32912 ft | 478 kts | 205° |
| 2026-05-03 22:19 | 14.02053 | -85.34818 | 32913 ft | 477 kts | 205° |
| 2026-05-03 22:19 | 13.96007 | -85.37648 | 32910 ft | 477 kts | 205° |
| 2026-05-03 22:20 | 13.89965 | -85.40479 | 32911 ft | 477 kts | 205° |
| 2026-05-03 22:20 | 13.83916 | -85.43312 | 32910 ft | 477 kts | 205° |
| 2026-05-03 22:21 | 13.77898 | -85.46128 | 32909 ft | 477 kts | 205° |
| 2026-05-03 22:21 | 13.71848 | -85.48958 | 32910 ft | 477 kts | 205° |
| 2026-05-03 22:22 | 13.65841 | -85.51766 | 32908 ft | 463 kts | 205° |
| 2026-05-03 22:22 | 13.60052 | -85.54470 | 32915 ft | 456 kts | 205° |
| 2026-05-03 22:23 | 13.54273 | -85.57169 | 32913 ft | 456 kts | 205° |
| 2026-05-03 22:23 | 13.48487 | -85.59870 | 32916 ft | 456 kts | 205° |
| 2026-05-03 22:24 | 13.42737 | -85.62553 | 32914 ft | 456 kts | 205° |
| 2026-05-03 22:24 | 13.36942 | -85.65255 | 32917 ft | 457 kts | 205° |
| 2026-05-03 22:25 | 13.31150 | -85.67953 | 32917 ft | 457 kts | 205° |
| 2026-05-03 22:25 | 13.25354 | -85.70650 | 32918 ft | 457 kts | 205° |
| 2026-05-03 22:26 | 13.19554 | -85.73346 | 32915 ft | 457 kts | 205° |
| 2026-05-03 22:26 | 13.13759 | -85.76039 | 32918 ft | 457 kts | 205° |
| 2026-05-03 22:27 | 13.08013 | -85.78701 | 32694 ft | 452 kts | 204° |
| 2026-05-03 22:27 | 13.05098 | -85.80055 | 31501 ft | 456 kts | 204° |
| 2026-05-03 22:27 | 13.02228 | -85.81395 | 30307 ft | 461 kts | 204° |
| 2026-05-03 22:27 | 12.99293 | -85.82777 | 28980 ft | 466 kts | 204° |
| 2026-05-03 22:28 | 12.96345 | -85.84175 | 27615 ft | 470 kts | 205° |
| 2026-05-03 22:28 | 12.93364 | -85.85594 | 26232 ft | 473 kts | 205° |
| 2026-05-03 22:28 | 12.90352 | -85.87027 | 24839 ft | 478 kts | 205° |
| 2026-05-03 22:28 | 12.87325 | -85.88466 | 23607 ft | 480 kts | 205° |
| 2026-05-03 22:29 | 12.84306 | -85.89897 | 22460 ft | 475 kts | 205° |
| 2026-05-03 22:29 | 12.81330 | -85.91309 | 21394 ft | 468 kts | 204° |
| 2026-05-03 22:29 | 12.78395 | -85.92707 | 20350 ft | 461 kts | 204° |
| 2026-05-03 22:29 | 12.75545 | -85.94115 | 19904 ft | 454 kts | 209° |
| 2026-05-03 22:30 | 12.72964 | -85.95972 | 19282 ft | 450 kts | 220° |
| 2026-05-03 22:30 | 12.70745 | -85.98183 | 18185 ft | 449 kts | 226° |
| 2026-05-03 22:30 | 12.68621 | -86.00512 | 17121 ft | 443 kts | 226° |
| 2026-05-03 22:30 | 12.66490 | -86.02762 | 16136 ft | 437 kts | 225° |
| 2026-05-03 22:31 | 12.64318 | -86.04903 | 15173 ft | 430 kts | 223° |
| 2026-05-03 22:31 | 12.62120 | -86.06948 | 14234 ft | 424 kts | 221° |
| 2026-05-03 22:31 | 12.59916 | -86.08923 | 13286 ft | 419 kts | 220° |
| 2026-05-03 22:31 | 12.57753 | -86.10823 | 12980 ft | 397 kts | 220° |
| 2026-05-03 22:32 | 12.55716 | -86.12599 | 12838 ft | 373 kts | 220° |
| 2026-05-03 22:32 | 12.53795 | -86.14271 | 12700 ft | 351 kts | 220° |
| 2026-05-03 22:32 | 12.52602 | -86.15309 | 12618 ft | 329 kts | 220° |
| 2026-05-03 22:32 | 12.50916 | -86.16777 | 12077 ft | 313 kts | 220° |
| 2026-05-03 22:33 | 12.49258 | -86.18220 | 11612 ft | 311 kts | 220° |
| 2026-05-03 22:33 | 12.47614 | -86.19652 | 11114 ft | 309 kts | 220° |
| 2026-05-03 22:33 | 12.45981 | -86.21074 | 10636 ft | 307 kts | 220° |
| 2026-05-03 22:33 | 12.44357 | -86.22489 | 10173 ft | 305 kts | 220° |
| 2026-05-03 22:34 | 12.42745 | -86.23893 | 9704 ft | 304 kts | 220° |
| 2026-05-03 22:34 | 12.41140 | -86.25291 | 9216 ft | 302 kts | 219° |
| 2026-05-03 22:34 | 12.39546 | -86.26679 | 8734 ft | 300 kts | 219° |
| 2026-05-03 22:34 | 12.37966 | -86.28056 | 8279 ft | 297 kts | 219° |
| 2026-05-03 22:35 | 12.36399 | -86.29420 | 7828 ft | 295 kts | 219° |
| 2026-05-03 22:35 | 12.34842 | -86.30776 | 7380 ft | 293 kts | 219° |
| 2026-05-03 22:35 | 12.33315 | -86.32105 | 6958 ft | 291 kts | 219° |
| 2026-05-03 22:35 | 12.31779 | -86.33442 | 6541 ft | 288 kts | 218° |
| 2026-05-03 22:36 | 12.30159 | -86.34608 | 6055 ft | 283 kts | 201° |
| 2026-05-03 22:36 | 12.28289 | -86.35148 | 5616 ft | 278 kts | 187° |
| 2026-05-03 22:36 | 12.26416 | -86.35416 | 5225 ft | 259 kts | 184° |
| 2026-05-03 22:36 | 12.24715 | -86.35612 | 4897 ft | 233 kts | 183° |
| 2026-05-03 22:37 | 12.23187 | -86.35784 | 4543 ft | 209 kts | 183° |
| 2026-05-03 22:37 | 12.21806 | -86.35939 | 4195 ft | 194 kts | 182° |
| 2026-05-03 22:37 | 12.20481 | -86.36082 | 3860 ft | 189 kts | 180° |
| 2026-05-03 22:37 | 12.19183 | -86.36045 | 3519 ft | 183 kts | 166° |
| 2026-05-03 22:38 | 12.18004 | -86.35636 | 3182 ft | 177 kts | 148° |
| 2026-05-03 22:38 | 12.17056 | -86.34878 | 3013 ft | 172 kts | 130° |
| 2026-05-03 22:38 | 12.16406 | -86.33853 | 3028 ft | 173 kts | 112° |
| 2026-05-03 22:38 | 12.16107 | -86.32678 | 2999 ft | 174 kts | 99° |
| 2026-05-03 22:39 | 12.15894 | -86.31458 | 2772 ft | 174 kts | 101° |
| 2026-05-03 22:39 | 12.15684 | -86.30246 | 2520 ft | 172 kts | 100° |
| 2026-05-03 22:39 | 12.15518 | -86.29039 | 2314 ft | 172 kts | 98° |
| 2026-05-03 22:39 | 12.15390 | -86.27850 | 2046 ft | 167 kts | 97° |
| 2026-05-03 22:40 | 12.15264 | -86.26675 | 1848 ft | 166 kts | 99° |
| 2026-05-03 22:40 | 12.15131 | -86.25524 | 1648 ft | 165 kts | 98° |
| 2026-05-03 22:40 | 12.15004 | -86.24363 | 1431 ft | 164 kts | 98° |
| 2026-05-03 22:40 | 12.14875 | -86.23209 | 1214 ft | 163 kts | 98° |
| 2026-05-03 22:41 | 12.14749 | -86.22069 | 1043 ft | 161 kts | 99° |
| 2026-05-03 22:41 | 12.14619 | -86.20930 | 814 ft | 160 kts | 98° |
| 2026-05-03 22:41 | 12.14491 | -86.19784 | 586 ft | 162 kts | 98° |
| 2026-05-03 22:41 | 12.14360 | -86.18639 | 399 ft | 161 kts | 97° |
| 2026-05-03 22:42 | 12.14269 | -86.17770 | 217 ft | 158 kts | 97° |
| 2026-05-03 22:42 | 12.14159 | -86.16838 | 216 ft | 105 kts | 97° |
| 2026-05-03 22:42 | 12.14099 | -86.16300 | 213 ft | 50 kts | 96° |
| 2026-05-03 22:42 | 12.14062 | -86.15976 | 209 ft | 38 kts | 96° |
| 2026-05-03 22:43 | 12.14037 | -86.15778 | 214 ft | 13 kts | 116° |
| 2026-05-03 22:43 | 12.14029 | -86.15765 | 220 ft | 0 kts | 115° |
| 2026-05-03 22:43 | 12.14029 | -86.15762 | 220 ft | 1 kts | 104° |
| 2026-05-03 22:43 | 12.14033 | -86.15756 | 214 ft | 1 kts | 69° |
| 2026-05-03 22:44 | 12.14038 | -86.15754 | 215 ft | 1 kts | 35° |
| 2026-05-03 22:44 | 12.14045 | -86.15756 | 214 ft | 1 kts | 355° |
| 2026-05-03 22:44 | 12.14049 | -86.15763 | 219 ft | 1 kts | 313° |
| 2026-05-03 22:44 | 12.14049 | -86.15776 | 218 ft | 4 kts | 270° |
| 2026-05-03 22:45 | 12.14051 | -86.15845 | 213 ft | 15 kts | 275° |
| 2026-05-03 22:45 | 12.14065 | -86.15984 | 209 ft | 25 kts | 276° |
| 2026-05-03 22:45 | 12.14084 | -86.16176 | 211 ft | 27 kts | 276° |
| 2026-05-03 22:45 | 12.14104 | -86.16361 | 217 ft | 26 kts | 277° |
| 2026-05-03 22:46 | 12.14126 | -86.16540 | 209 ft | 25 kts | 277° |
| 2026-05-03 22:46 | 12.14145 | -86.16708 | 207 ft | 23 kts | 276° |
| 2026-05-03 22:46 | 12.14164 | -86.16865 | 214 ft | 22 kts | 277° |
| 2026-05-03 22:46 | 12.14199 | -86.17008 | 219 ft | 20 kts | 301° |
| 2026-05-03 22:47 | 12.14264 | -86.17096 | 217 ft | 13 kts | 307° |
| 2026-05-03 22:47 | 12.14295 | -86.17148 | 219 ft | 6 kts | 307° |
| 2026-05-03 22:47 | 12.14314 | -86.17158 | 215 ft | 1 kts | 348° |
| 2026-05-03 22:47 | 12.14320 | -86.17155 | 219 ft | 2 kts | 17° |
| 2026-05-03 22:48 | 12.14327 | -86.17135 | 217 ft | 5 kts | 88° |
| 2026-05-03 22:48 | 12.14325 | -86.17089 | 207 ft | 5 kts | 92° |
| 2026-05-03 22:48 | 12.14320 | -86.17047 | 214 ft | 7 kts | 96° |
| 2026-05-03 22:48 | 12.14315 | -86.16999 | 209 ft | 2 kts | 94° |
| 2026-05-03 22:49 | 12.14316 | -86.16991 | 210 ft | 1 kts | 82° |
| 2026-05-03 22:49 | 12.14327 | -86.16977 | 220 ft | 4 kts | 40° |
| 2026-05-03 22:49 | 12.14353 | -86.16968 | 218 ft | 3 kts | 16° |
| 2026-05-03 22:49 | 12.14363 | -86.16966 | 218 ft | 1 kts | 10° |
| 2026-05-03 22:50 | 12.14368 | -86.16966 | 217 ft | 1 kts | 8° |
| 2026-05-03 22:50 | 12.14371 | -86.16966 | 217 ft | 0 kts | 8° |
| 2026-05-03 22:50 | 12.14373 | -86.16965 | 216 ft | 0 kts | 8° |
| 2026-05-03 22:50 | 12.14376 | -86.16965 | 216 ft | 0 kts | 8° |
| 2026-05-03 22:51 | 12.14378 | -86.16965 | 213 ft | 0 kts | 8° |